createdAt,value
2022-10-23T00:00:03.420Z,94.0
2022-10-23T00:02:02.418Z,94.0
2022-10-23T00:04:05.152Z,94.0
2022-10-23T00:06:04.479Z,94.0
2022-10-23T00:08:02.418Z,95.0
2022-10-23T00:10:03.024Z,95.0
2022-10-23T00:12:02.196Z,95.0
2022-10-23T00:14:06.056Z,95.0
2022-10-23T00:16:02.195Z,95.0
2022-10-23T00:18:02.707Z,96.0
2022-10-23T00:20:02.204Z,96.0
2022-10-23T00:22:02.193Z,96.0
2022-10-23T00:24:02.377Z,96.0
2022-10-23T00:26:02.879Z,96.0
2022-10-23T00:28:02.246Z,95.0
2022-10-23T00:30:05.400Z,95.0
2022-10-23T00:32:02.239Z,95.0
2022-10-23T00:34:03.742Z,95.0
2022-10-23T00:36:04.303Z,95.0
2022-10-23T00:38:02.752Z,95.0
2022-10-23T00:40:02.271Z,95.0
2022-10-23T00:42:02.571Z,95.0
2022-10-23T00:44:08.352Z,94.0
2022-10-23T00:46:02.882Z,94.0
2022-10-23T00:48:03.757Z,94.0
2022-10-23T00:50:02.911Z,94.0
2022-10-23T00:52:06.935Z,94.0
2022-10-23T00:56:02.835Z,95.0
2022-10-23T00:58:02.379Z,95.0
2022-10-23T01:00:03.715Z,95.0
2022-10-23T01:02:02.351Z,94.0
2022-10-23T01:04:05.007Z,95.0
2022-10-23T01:06:10.951Z,95.0
2022-10-23T01:08:08.757Z,95.0
2022-10-23T01:10:10.335Z,95.0
2022-10-23T01:12:10.610Z,95.0
2022-10-23T01:16:08.981Z,95.0
2022-10-23T01:18:10.285Z,95.0
2022-10-23T01:20:19.630Z,95.0
2022-10-23T01:22:16.751Z,96.0
2022-10-23T01:24:12.217Z,96.0
2022-10-23T01:26:18.418Z,96.0
2022-10-23T01:28:07.229Z,96.0
2022-10-23T01:30:06.285Z,96.0
2022-10-23T01:32:07.836Z,96.0
2022-10-23T01:34:09.885Z,96.0
2022-10-23T01:36:06.463Z,96.0
2022-10-23T01:38:09.673Z,96.0
2022-10-23T01:40:05.661Z,96.0
2022-10-23T01:42:06.919Z,96.0
2022-10-23T01:44:09.083Z,96.0
2022-10-23T01:46:05.446Z,96.0
2022-10-23T01:48:04.633Z,96.0
2022-10-23T01:50:04.723Z,96.0
2022-10-23T01:52:06.360Z,96.0
2022-10-23T01:54:07.281Z,96.0
2022-10-23T01:56:06.271Z,96.0
2022-10-23T01:58:04.612Z,95.0
2022-10-23T02:00:07.156Z,95.0
2022-10-23T02:02:04.448Z,95.0
2022-10-23T02:04:05.789Z,95.0
2022-10-23T02:06:02.504Z,95.0
2022-10-23T02:08:03.239Z,95.0
2022-10-23T02:10:05.024Z,95.0
2022-10-23T02:12:09.131Z,95.0
2022-10-23T02:14:11.561Z,95.0
2022-10-23T02:16:12.319Z,95.0
2022-10-23T02:18:09.418Z,95.0
2022-10-23T02:20:16.504Z,96.0
2022-10-23T02:22:08.192Z,96.0
2022-10-23T02:24:07.724Z,96.0
2022-10-23T02:26:07.234Z,96.0
2022-10-23T02:28:08.194Z,96.0
2022-10-23T02:30:06.819Z,96.0
2022-10-23T02:32:03.077Z,96.0
2022-10-23T02:34:02.420Z,96.0
2022-10-23T02:36:03.284Z,96.0
2022-10-23T02:38:02.946Z,96.0
2022-10-23T02:40:03.563Z,96.0
2022-10-23T02:42:11.565Z,96.0
2022-10-23T02:44:10.476Z,96.0
2022-10-23T02:46:12.378Z,96.0
2022-10-23T02:48:12.344Z,96.0
2022-10-23T02:50:10.758Z,97.0
2022-10-23T02:52:09.510Z,96.0
2022-10-23T02:54:08.698Z,96.0
2022-10-23T02:56:09.263Z,96.0
2022-10-23T02:58:10.504Z,96.0
2022-10-23T03:00:07.282Z,97.0
2022-10-23T03:02:06.749Z,97.0
2022-10-23T03:04:05.711Z,97.0
2022-10-23T03:06:04.069Z,97.0
2022-10-23T03:08:04.516Z,97.0
2022-10-23T03:10:03.045Z,97.0
2022-10-23T03:12:02.191Z,97.0
2022-10-23T03:14:02.368Z,97.0
2022-10-23T03:16:02.231Z,97.0
2022-10-23T03:18:02.410Z,97.0
2022-10-23T03:20:02.429Z,97.0
2022-10-23T03:22:02.383Z,97.0
2022-10-23T03:24:02.148Z,97.0
2022-10-23T03:26:02.779Z,97.0
2022-10-23T03:28:02.808Z,97.0
2022-10-23T03:30:04.138Z,97.0
2022-10-23T03:32:02.825Z,97.0
2022-10-23T03:34:04.102Z,97.0
2022-10-23T03:36:02.181Z,97.0
2022-10-23T03:38:02.232Z,96.0
2022-10-23T03:40:03.290Z,96.0
2022-10-23T03:42:03.207Z,96.0
2022-10-23T03:44:02.396Z,96.0
2022-10-23T03:46:02.273Z,96.0
2022-10-23T03:48:02.186Z,96.0
2022-10-23T03:50:02.790Z,96.0
2022-10-23T03:52:02.188Z,96.0
2022-10-23T03:54:02.803Z,96.0
2022-10-23T03:56:03.002Z,96.0
2022-10-23T03:58:02.247Z,96.0
2022-10-23T04:00:02.238Z,96.0
2022-10-23T04:02:02.379Z,97.0
2022-10-23T04:04:03.225Z,96.0
2022-10-23T04:06:02.439Z,96.0
2022-10-23T04:08:02.259Z,96.0
2022-10-23T04:10:02.828Z,96.0
2022-10-23T04:12:02.177Z,96.0
2022-10-23T04:14:02.243Z,96.0
2022-10-23T04:16:03.470Z,96.0
2022-10-23T04:18:02.760Z,96.0
2022-10-23T04:20:02.446Z,97.0
2022-10-23T04:22:02.798Z,97.0
2022-10-23T04:24:02.187Z,97.0
2022-10-23T04:26:02.274Z,97.0
2022-10-23T04:28:02.945Z,97.0
2022-10-23T04:30:03.361Z,97.0
2022-10-23T04:32:02.291Z,97.0
2022-10-23T04:34:02.235Z,97.0
2022-10-23T04:36:02.274Z,96.0
2022-10-23T04:38:03.637Z,97.0
2022-10-23T04:40:02.883Z,97.0
2022-10-23T04:42:02.380Z,97.0
2022-10-23T04:44:02.396Z,96.0
2022-10-23T04:46:03.297Z,97.0
2022-10-23T04:48:02.710Z,97.0
2022-10-23T04:50:02.324Z,97.0
2022-10-23T04:52:02.124Z,97.0
2022-10-23T04:54:02.378Z,97.0
2022-10-23T04:56:03.210Z,97.0
2022-10-23T04:58:02.257Z,97.0
2022-10-23T05:00:02.459Z,97.0
2022-10-23T05:02:02.770Z,97.0
2022-10-23T05:04:02.215Z,97.0
2022-10-23T05:06:02.695Z,97.0
2022-10-23T05:08:02.222Z,97.0
2022-10-23T05:10:03.158Z,97.0
2022-10-23T05:12:02.345Z,97.0
2022-10-23T05:14:02.266Z,97.0
2022-10-23T05:16:02.220Z,97.0
2022-10-23T05:18:11.366Z,97.0
2022-10-23T05:20:05.661Z,97.0
2022-10-23T05:22:02.845Z,97.0
2022-10-23T05:24:02.415Z,97.0
2022-10-23T05:26:03.472Z,97.0
2022-10-23T05:28:02.223Z,97.0
2022-10-23T05:30:02.330Z,97.0
2022-10-23T05:32:06.082Z,97.0
2022-10-23T05:34:02.228Z,97.0
2022-10-23T05:36:03.192Z,97.0
2022-10-23T05:38:03.062Z,97.0
2022-10-23T05:40:02.275Z,97.0
2022-10-23T05:42:02.503Z,97.0
2022-10-23T05:44:02.621Z,97.0
2022-10-23T05:46:06.053Z,97.0
2022-10-23T05:48:10.960Z,97.0
2022-10-23T05:50:02.261Z,97.0
2022-10-23T05:52:02.198Z,97.0
2022-10-23T05:54:02.360Z,97.0
2022-10-23T05:56:05.804Z,97.0
2022-10-23T05:58:03.369Z,97.0
2022-10-23T06:00:02.227Z,97.0
2022-10-23T06:02:02.423Z,97.0
2022-10-23T06:04:03.949Z,97.0
2022-10-23T06:06:02.456Z,96.0
2022-10-23T06:08:02.389Z,96.0
2022-10-23T06:10:02.242Z,96.0
2022-10-23T06:12:02.447Z,97.0
2022-10-23T06:14:02.286Z,97.0
2022-10-23T06:16:10.095Z,97.0
2022-10-23T06:18:03.862Z,97.0
2022-10-23T06:20:02.212Z,97.0
2022-10-23T06:22:04.242Z,97.0
2022-10-23T06:24:02.197Z,97.0
2022-10-23T06:26:04.125Z,97.0
2022-10-23T06:28:02.182Z,97.0
2022-10-23T06:30:02.583Z,97.0
2022-10-23T06:32:02.268Z,97.0
2022-10-23T06:34:02.232Z,97.0
2022-10-23T06:36:03.215Z,97.0
2022-10-23T06:38:02.162Z,97.0
2022-10-23T06:40:02.216Z,97.0
2022-10-23T06:42:03.164Z,97.0
2022-10-23T06:44:02.280Z,97.0
2022-10-23T06:46:03.357Z,97.0
2022-10-23T06:48:02.978Z,97.0
2022-10-23T06:50:02.260Z,97.0
2022-10-23T06:52:02.221Z,97.0
2022-10-23T06:54:02.946Z,97.0
2022-10-23T06:56:04.305Z,97.0
2022-10-23T06:58:02.295Z,97.0
2022-10-23T07:00:02.468Z,97.0
2022-10-23T07:02:02.283Z,97.0
2022-10-23T07:04:02.295Z,97.0
2022-10-23T07:06:04.081Z,97.0
2022-10-23T07:08:04.949Z,97.0
2022-10-23T07:10:02.283Z,97.0
2022-10-23T07:12:02.126Z,97.0
2022-10-23T07:14:02.190Z,97.0
2022-10-23T07:16:12.294Z,97.0
2022-10-23T07:18:03.371Z,97.0
2022-10-23T07:20:02.276Z,97.0
2022-10-23T07:22:02.150Z,97.0
2022-10-23T07:24:03.841Z,97.0
2022-10-23T07:26:06.322Z,97.0
2022-10-23T07:28:02.241Z,97.0
2022-10-23T07:30:03.020Z,97.0
2022-10-23T07:32:02.364Z,97.0
2022-10-23T07:34:03.074Z,97.0
2022-10-23T07:36:05.143Z,97.0
2022-10-23T07:38:02.171Z,97.0
2022-10-23T07:40:02.253Z,97.0
2022-10-23T07:42:02.357Z,97.0
2022-10-23T07:44:02.178Z,97.0
2022-10-23T07:46:02.825Z,97.0
2022-10-23T07:48:02.163Z,97.0
2022-10-23T07:50:02.213Z,97.0
2022-10-23T07:52:04.677Z,97.0
2022-10-23T07:54:02.471Z,97.0
2022-10-23T07:56:04.219Z,97.0
2022-10-23T07:58:02.209Z,97.0
2022-10-23T08:00:02.225Z,97.0
2022-10-23T08:02:02.267Z,97.0
2022-10-23T08:04:02.306Z,97.0
2022-10-23T08:06:02.916Z,97.0
2022-10-23T08:08:02.186Z,97.0
2022-10-23T08:10:02.215Z,97.0
2022-10-23T08:12:02.830Z,97.0
2022-10-23T08:14:04.490Z,97.0
2022-10-23T08:16:02.254Z,97.0
2022-10-23T08:18:02.341Z,97.0
2022-10-23T08:20:02.307Z,97.0
2022-10-23T08:22:03.502Z,97.0
2022-10-23T08:24:02.218Z,97.0
2022-10-23T08:26:05.006Z,97.0
2022-10-23T08:28:05.529Z,97.0
2022-10-23T08:30:02.455Z,97.0
2022-10-23T08:32:02.236Z,97.0
2022-10-23T08:34:02.191Z,97.0
2022-10-23T08:36:02.824Z,97.0
2022-10-23T08:38:03.126Z,97.0
2022-10-23T08:40:02.514Z,97.0
2022-10-23T08:42:03.086Z,97.0
2022-10-23T08:44:09.268Z,97.0
2022-10-23T08:46:09.423Z,97.0
2022-10-23T08:48:12.336Z,97.0
2022-10-23T08:50:08.463Z,97.0
2022-10-23T08:52:13.180Z,97.0
2022-10-23T08:54:12.465Z,97.0
2022-10-23T08:56:05.201Z,97.0
2022-10-23T08:58:06.857Z,97.0
2022-10-23T09:00:06.745Z,97.0
2022-10-23T09:02:11.277Z,97.0
2022-10-23T09:04:03.780Z,97.0
2022-10-23T09:06:12.222Z,97.0
2022-10-23T09:08:16.348Z,97.0
2022-10-23T09:10:19.112Z,97.0
2022-10-23T09:12:07.210Z,97.0
2022-10-23T09:14:21.561Z,97.0
2022-10-23T09:16:07.793Z,97.0
2022-10-23T09:18:12.082Z,97.0
2022-10-23T09:20:14.506Z,97.0
2022-10-23T09:22:02.441Z,97.0
2022-10-23T09:24:02.125Z,97.0
2022-10-23T09:26:05.429Z,97.0
2022-10-23T09:28:05.520Z,97.0
2022-10-23T09:30:03.336Z,97.0
2022-10-23T09:32:05.911Z,97.0
2022-10-23T09:34:02.348Z,97.0
2022-10-23T09:36:04.475Z,97.0
2022-10-23T09:38:02.201Z,97.0
2022-10-23T09:40:14.446Z,97.0
2022-10-23T09:42:21.236Z,97.0
2022-10-23T09:44:03.078Z,97.0
2022-10-23T09:46:05.717Z,97.0
2022-10-23T09:48:07.090Z,97.0
2022-10-23T09:50:02.220Z,97.0
2022-10-23T09:52:05.434Z,97.0
2022-10-23T09:54:03.138Z,97.0
2022-10-23T09:56:07.530Z,97.0
2022-10-23T09:58:02.183Z,97.0
2022-10-23T10:00:06.947Z,97.0
2022-10-23T10:02:04.286Z,97.0
2022-10-23T10:04:03.283Z,97.0
2022-10-23T10:06:04.711Z,97.0
2022-10-23T10:08:10.757Z,97.0
2022-10-23T10:10:02.203Z,97.0
2022-10-23T10:12:19.797Z,97.0
2022-10-23T10:14:21.431Z,97.0
2022-10-23T10:16:07.070Z,97.0
2022-10-23T10:18:14.488Z,97.0
2022-10-23T10:20:19.786Z,97.0
2022-10-23T10:22:11.854Z,97.0
2022-10-23T10:24:08.272Z,97.0
2022-10-23T10:26:11.534Z,97.0
2022-10-23T10:28:20.064Z,97.0
2022-10-23T10:30:09.029Z,97.0
2022-10-23T10:32:16.441Z,97.0
2022-10-23T10:34:11.214Z,97.0
2022-10-23T10:36:13.397Z,97.0
2022-10-23T10:38:18.636Z,97.0
2022-10-23T10:40:14.148Z,97.0
2022-10-23T10:42:21.252Z,97.0
2022-10-23T10:44:19.969Z,97.0
2022-10-23T10:46:11.553Z,97.0
2022-10-23T10:48:20.313Z,97.0
2022-10-23T10:50:15.726Z,97.0
2022-10-23T10:52:14.944Z,97.0
2022-10-23T10:54:18.982Z,97.0
2022-10-23T10:56:05.344Z,97.0
2022-10-23T10:58:06.608Z,97.0
2022-10-23T11:00:12.795Z,97.0
2022-10-23T11:02:13.730Z,97.0
2022-10-23T11:04:11.203Z,97.0
2022-10-23T11:06:04.827Z,97.0
2022-10-23T11:08:10.976Z,97.0
2022-10-23T11:10:13.282Z,97.0
2022-10-23T11:12:02.270Z,97.0
2022-10-23T11:14:02.624Z,97.0
2022-10-23T11:16:06.482Z,97.0
2022-10-23T11:18:07.154Z,97.0
2022-10-23T11:20:10.266Z,97.0
2022-10-23T11:22:10.803Z,97.0
2022-10-23T11:24:20.662Z,97.0
2022-10-23T11:26:16.197Z,97.0
2022-10-23T11:28:19.408Z,97.0
2022-10-23T11:30:17.633Z,97.0
2022-10-23T11:32:19.301Z,97.0
2022-10-23T11:34:20.570Z,97.0
2022-10-23T11:36:13.757Z,97.0
2022-10-23T11:38:15.482Z,97.0
2022-10-23T11:40:13.913Z,97.0
2022-10-23T11:42:14.214Z,98.0
2022-10-23T11:44:04.759Z,97.0
2022-10-23T11:46:12.799Z,97.0
2022-10-23T11:48:04.832Z,98.0
2022-10-23T11:50:16.458Z,98.0
2022-10-23T11:52:04.633Z,97.0
2022-10-23T11:54:09.457Z,97.0
2022-10-23T11:56:06.397Z,97.0
2022-10-23T11:58:21.240Z,97.0
2022-10-23T12:00:02.261Z,97.0
2022-10-23T12:02:13.888Z,97.0
2022-10-23T12:04:14.199Z,97.0
2022-10-23T12:06:06.392Z,97.0
2022-10-23T12:08:05.678Z,97.0
2022-10-23T12:10:06.765Z,97.0
2022-10-23T12:12:05.315Z,97.0
2022-10-23T12:14:02.292Z,97.0
2022-10-23T12:16:02.926Z,97.0
2022-10-23T12:18:14.805Z,97.0
2022-10-23T12:20:14.074Z,97.0
2022-10-23T12:22:03.381Z,97.0
2022-10-23T12:24:22.311Z,97.0
2022-10-23T12:26:18.237Z,97.0
2022-10-23T12:28:08.878Z,97.0
2022-10-23T12:30:15.392Z,97.0
2022-10-23T12:32:17.283Z,97.0
2022-10-23T12:34:13.777Z,97.0
2022-10-23T12:36:16.549Z,97.0
2022-10-23T12:38:14.113Z,97.0
2022-10-23T12:40:02.331Z,97.0
2022-10-23T12:42:02.621Z,97.0
2022-10-23T12:44:05.291Z,97.0
2022-10-23T12:46:17.621Z,97.0
2022-10-23T12:48:02.181Z,97.0
2022-10-23T12:50:03.239Z,97.0
2022-10-23T12:52:05.465Z,97.0
2022-10-23T12:54:03.833Z,97.0
2022-10-23T12:56:05.251Z,97.0
2022-10-23T12:58:02.295Z,97.0
2022-10-23T13:00:09.962Z,97.0
2022-10-23T13:06:03.739Z,97.0
2022-10-23T13:08:03.009Z,97.0
2022-10-23T13:10:04.197Z,98.0
2022-10-23T13:12:06.533Z,98.0
2022-10-23T13:14:02.266Z,97.0
2022-10-23T13:16:16.146Z,97.0
2022-10-23T13:18:03.916Z,97.0
2022-10-23T13:22:06.281Z,97.0
2022-10-23T13:24:02.276Z,97.0
2022-10-23T13:26:04.986Z,97.0
2022-10-23T13:28:15.751Z,97.0
2022-10-23T13:30:03.966Z,97.0
2022-10-23T13:32:11.060Z,97.0
2022-10-23T13:34:16.568Z,97.0
2022-10-23T13:36:04.888Z,97.0
2022-10-23T13:38:08.865Z,97.0
2022-10-23T13:40:07.300Z,97.0
2022-10-23T13:42:13.479Z,98.0
2022-10-23T13:44:02.763Z,98.0
2022-10-23T13:46:02.725Z,98.0
2022-10-23T13:48:02.144Z,98.0
2022-10-23T13:50:02.196Z,98.0
2022-10-23T13:52:02.322Z,98.0
2022-10-23T13:54:02.143Z,98.0
2022-10-23T13:56:02.287Z,98.0
2022-10-23T13:58:02.814Z,98.0
2022-10-23T14:00:02.202Z,98.0
2022-10-23T14:02:04.548Z,98.0
2022-10-23T14:04:04.285Z,98.0
2022-10-23T14:06:02.274Z,98.0
2022-10-23T14:08:02.253Z,98.0
2022-10-23T14:10:02.700Z,98.0
2022-10-23T14:12:02.140Z,98.0
2022-10-23T14:14:02.463Z,98.0
2022-10-23T14:16:03.122Z,98.0
2022-10-23T14:18:07.280Z,98.0
2022-10-23T14:20:04.112Z,98.0
2022-10-23T14:22:02.956Z,98.0
2022-10-23T14:24:02.178Z,98.0
2022-10-23T14:26:03.044Z,98.0
2022-10-23T14:28:02.364Z,98.0
2022-10-23T14:30:02.192Z,98.0
2022-10-23T14:32:02.218Z,98.0
2022-10-23T14:34:02.218Z,98.0
2022-10-23T14:36:03.259Z,98.0
2022-10-23T14:38:02.160Z,98.0
2022-10-23T14:40:02.457Z,98.0
2022-10-23T14:42:02.940Z,98.0
2022-10-23T14:44:02.176Z,98.0
2022-10-23T14:46:09.685Z,98.0
2022-10-23T14:48:02.230Z,98.0
2022-10-23T14:50:02.255Z,98.0
2022-10-23T14:52:02.553Z,98.0
2022-10-23T14:54:04.566Z,98.0
2022-10-23T14:56:04.811Z,98.0
2022-10-23T14:58:02.779Z,98.0
2022-10-23T15:00:02.191Z,98.0
2022-10-23T15:02:02.253Z,98.0
2022-10-23T15:04:03.304Z,98.0
2022-10-23T15:06:03.719Z,97.0
2022-10-23T15:08:02.273Z,97.0
2022-10-23T15:10:02.305Z,97.0
2022-10-23T15:12:02.294Z,97.0
2022-10-23T15:14:02.795Z,97.0
2022-10-23T15:16:05.678Z,97.0
2022-10-23T15:18:02.173Z,97.0
2022-10-23T15:20:02.780Z,97.0
2022-10-23T15:22:02.193Z,97.0
2022-10-23T15:24:02.460Z,98.0
2022-10-23T15:26:04.445Z,97.0
2022-10-23T15:28:02.374Z,97.0
2022-10-23T15:30:02.375Z,98.0
2022-10-23T15:32:04.326Z,97.0
2022-10-23T15:34:02.228Z,98.0
2022-10-23T15:36:02.198Z,98.0
2022-10-23T15:38:02.775Z,98.0
2022-10-23T15:40:03.342Z,98.0
2022-10-23T15:42:04.551Z,98.0
2022-10-23T15:44:05.369Z,98.0
2022-10-23T15:46:02.196Z,98.0
2022-10-23T15:48:02.170Z,98.0
2022-10-23T15:50:02.236Z,98.0
2022-10-23T15:52:03.743Z,98.0
2022-10-23T15:54:03.284Z,98.0
2022-10-23T15:56:02.441Z,98.0
2022-10-23T15:58:04.464Z,98.0
2022-10-23T16:00:02.355Z,98.0
2022-10-23T16:02:02.343Z,98.0
2022-10-23T16:04:03.009Z,98.0
2022-10-23T16:06:03.664Z,98.0
2022-10-23T16:08:02.537Z,98.0
2022-10-23T16:10:03.001Z,98.0
2022-10-23T16:12:02.198Z,98.0
2022-10-23T16:14:03.834Z,98.0
2022-10-23T16:16:04.131Z,98.0
2022-10-23T16:18:02.320Z,98.0
2022-10-23T16:20:02.236Z,98.0
2022-10-23T16:22:02.708Z,98.0
2022-10-23T16:24:05.049Z,98.0
2022-10-23T16:26:04.628Z,98.0
2022-10-23T16:28:02.898Z,98.0
2022-10-23T16:30:02.207Z,98.0
2022-10-23T16:32:02.410Z,98.0
2022-10-23T16:34:04.882Z,98.0
2022-10-23T16:36:04.036Z,98.0
2022-10-23T16:38:03.182Z,98.0
2022-10-23T16:40:04.569Z,98.0
2022-10-23T16:42:03.239Z,98.0
2022-10-23T16:44:02.443Z,98.0
2022-10-23T16:46:05.991Z,98.0
2022-10-23T16:48:02.174Z,98.0
2022-10-23T16:50:02.282Z,98.0
2022-10-23T16:52:02.415Z,98.0
2022-10-23T16:54:02.447Z,98.0
2022-10-23T16:56:04.933Z,98.0
2022-10-23T16:58:02.475Z,98.0
2022-10-23T17:00:02.316Z,98.0
2022-10-23T17:02:02.417Z,98.0
2022-10-23T17:04:02.504Z,98.0
2022-10-23T17:06:06.160Z,98.0
2022-10-23T17:08:03.031Z,98.0
2022-10-23T17:10:02.186Z,98.0
2022-10-23T17:12:02.189Z,98.0
2022-10-23T17:14:06.130Z,98.0
2022-10-23T17:16:06.317Z,98.0
2022-10-23T17:18:02.180Z,98.0
2022-10-23T17:20:03.162Z,98.0
2022-10-23T17:22:02.286Z,98.0
2022-10-23T17:26:03.988Z,98.0
2022-10-23T17:28:02.903Z,98.0
2022-10-23T17:30:02.223Z,98.0
2022-10-23T17:32:02.810Z,98.0
2022-10-23T17:34:05.991Z,98.0
2022-10-23T17:36:02.219Z,98.0
2022-10-23T17:38:02.267Z,98.0
2022-10-23T17:40:03.294Z,98.0
2022-10-23T17:42:02.203Z,98.0
2022-10-23T17:46:04.076Z,97.0
2022-10-23T17:48:02.423Z,96.0
2022-10-23T17:50:02.830Z,94.0
2022-10-23T17:52:02.448Z,94.0
2022-10-23T17:54:04.190Z,95.0
2022-10-23T17:56:03.794Z,95.0
2022-10-23T17:58:02.207Z,95.0
2022-10-23T18:00:03.523Z,95.0
2022-10-23T18:02:02.754Z,95.0
2022-10-23T18:04:05.563Z,94.0
2022-10-23T18:06:06.745Z,94.0
2022-10-23T18:08:02.226Z,94.0
2022-10-23T18:10:02.912Z,94.0
2022-10-23T18:12:02.209Z,95.0
2022-10-23T18:14:03.836Z,95.0
2022-10-23T18:16:03.800Z,95.0
2022-10-23T18:18:07.277Z,94.0
2022-10-23T18:20:03.822Z,95.0
2022-10-23T18:22:02.183Z,93.0
2022-10-23T18:24:03.778Z,94.0
2022-10-23T18:26:03.693Z,93.0
2022-10-23T18:28:03.049Z,92.0
2022-10-23T18:30:03.021Z,90.0
2022-10-23T18:32:02.442Z,90.0
2022-10-23T18:34:04.578Z,89.0
2022-10-23T18:36:02.183Z,89.0
2022-10-23T18:38:03.267Z,90.0
2022-10-23T18:40:02.448Z,89.0
2022-10-23T18:42:02.189Z,86.0
2022-10-23T18:44:03.032Z,86.0
2022-10-23T18:46:02.186Z,89.0
2022-10-23T18:48:03.517Z,89.0
2022-10-23T18:50:02.275Z,88.0
2022-10-23T18:52:03.013Z,90.0
2022-10-23T18:54:05.716Z,90.0
2022-10-23T18:56:02.419Z,91.0
2022-10-23T18:58:02.172Z,88.0
2022-10-23T19:00:04.538Z,85.0
2022-10-23T19:02:03.152Z,84.0
2022-10-23T19:04:04.114Z,84.0
2022-10-23T19:06:02.260Z,84.0
2022-10-23T19:08:02.625Z,88.0
2022-10-23T19:10:03.426Z,87.0
2022-10-23T19:12:04.021Z,87.0
2022-10-23T19:14:02.319Z,88.0
2022-10-23T19:16:04.559Z,88.0
2022-10-23T19:18:03.110Z,88.0
2022-10-23T19:20:07.242Z,86.0
2022-10-23T19:22:04.244Z,87.0
2022-10-23T19:24:07.356Z,88.0
2022-10-23T19:26:04.818Z,87.0
2022-10-23T19:28:04.462Z,85.0
2022-10-23T19:30:05.077Z,88.0
2022-10-23T19:32:02.765Z,87.0
2022-10-23T19:34:02.297Z,87.0
2022-10-23T19:36:05.351Z,83.0
2022-10-23T19:38:03.055Z,83.0
2022-10-23T19:40:06.129Z,85.0
2022-10-23T19:42:02.954Z,85.0
2022-10-23T19:44:02.279Z,86.0
2022-10-23T19:46:06.348Z,86.0
2022-10-23T19:48:02.246Z,83.0
2022-10-23T19:50:03.712Z,84.0
2022-10-23T19:52:02.364Z,83.0
2022-10-23T19:54:02.905Z,84.0
2022-10-23T19:56:04.368Z,87.0
2022-10-23T19:58:02.199Z,86.0
2022-10-23T20:00:04.036Z,87.0
2022-10-23T20:02:03.205Z,86.0
2022-10-23T20:04:02.367Z,80.0
2022-10-23T20:06:02.179Z,80.0
2022-10-23T20:08:02.426Z,81.0
2022-10-23T20:10:02.354Z,79.0
2022-10-23T20:12:03.587Z,83.0
2022-10-23T20:14:03.112Z,83.0
2022-10-23T20:16:02.992Z,82.0
2022-10-23T20:18:02.152Z,83.0
2022-10-23T20:20:03.761Z,82.0
2022-10-23T20:22:02.222Z,84.0
2022-10-23T20:24:02.957Z,82.0
2022-10-23T20:26:07.510Z,85.0
2022-10-23T20:28:02.375Z,84.0
2022-10-23T20:30:02.180Z,85.0
2022-10-23T20:32:03.088Z,84.0
2022-10-23T20:34:03.631Z,80.0
2022-10-23T20:36:03.580Z,81.0
2022-10-23T20:38:02.239Z,83.0
2022-10-23T20:40:02.954Z,84.0
2022-10-23T20:42:03.989Z,85.0
2022-10-23T20:44:02.360Z,84.0
2022-10-23T20:46:05.053Z,83.0
2022-10-23T20:48:02.254Z,84.0
2022-10-23T20:50:02.307Z,84.0
2022-10-23T20:52:02.672Z,85.0
2022-10-23T20:54:03.109Z,84.0
2022-10-23T20:56:06.268Z,83.0
2022-10-23T20:58:02.762Z,84.0
2022-10-23T21:00:04.640Z,82.0
2022-10-23T21:02:02.855Z,83.0
2022-10-23T21:04:03.532Z,83.0
2022-10-23T21:06:04.412Z,84.0
2022-10-23T21:08:02.266Z,85.0
2022-10-23T21:10:03.874Z,86.0
2022-10-23T21:12:02.188Z,85.0
2022-10-23T21:14:03.388Z,82.0
2022-10-23T21:16:12.458Z,83.0
2022-10-23T21:18:13.054Z,81.0
2022-10-23T21:20:02.652Z,83.0
2022-10-23T21:22:02.776Z,82.0
2022-10-23T21:24:07.290Z,85.0
2022-10-23T21:26:06.312Z,85.0
2022-10-23T21:28:02.562Z,82.0
2022-10-23T21:30:02.209Z,84.0
2022-10-23T21:32:02.524Z,83.0
2022-10-23T21:34:03.235Z,82.0
2022-10-23T21:36:13.703Z,84.0
2022-10-23T21:38:02.253Z,82.0
2022-10-23T21:40:02.384Z,82.0
2022-10-23T21:42:02.207Z,82.0
2022-10-23T21:44:05.504Z,83.0
2022-10-23T21:46:04.741Z,82.0
2022-10-23T21:48:02.175Z,81.0
2022-10-23T21:50:02.259Z,81.0
2022-10-23T21:52:03.729Z,81.0
2022-10-23T21:54:03.193Z,78.0
2022-10-23T21:56:11.742Z,79.0
2022-10-23T21:58:02.193Z,81.0
2022-10-23T22:00:04.339Z,81.0
2022-10-23T22:02:02.324Z,82.0
2022-10-23T22:04:02.977Z,80.0
2022-10-23T22:06:02.160Z,81.0
2022-10-23T22:08:03.161Z,82.0
2022-10-23T22:10:02.281Z,84.0
2022-10-23T22:12:02.959Z,85.0
2022-10-23T22:14:02.198Z,85.0
2022-10-23T22:16:03.693Z,83.0
2022-10-23T22:18:02.749Z,84.0
2022-10-23T22:20:02.462Z,84.0
2022-10-23T22:22:02.190Z,82.0
2022-10-23T22:26:05.913Z,86.0
2022-10-23T22:28:02.366Z,83.0
2022-10-23T22:30:03.384Z,85.0
2022-10-23T22:32:02.283Z,86.0
2022-10-23T22:34:13.371Z,82.0
2022-10-23T22:38:02.549Z,82.0
2022-10-23T22:40:02.458Z,82.0
2022-10-23T22:42:02.207Z,82.0
2022-10-23T22:44:02.409Z,80.0
2022-10-23T22:46:04.351Z,82.0
2022-10-23T22:48:02.782Z,82.0
2022-10-23T22:50:02.190Z,81.0
2022-10-23T22:52:02.478Z,82.0
2022-10-23T22:54:02.168Z,84.0
2022-10-23T22:56:06.090Z,84.0
2022-10-23T22:58:02.361Z,84.0
2022-10-23T23:00:02.365Z,84.0
2022-10-23T23:02:02.255Z,81.0
2022-10-23T23:04:13.800Z,83.0
2022-10-23T23:06:04.186Z,84.0
2022-10-23T23:08:02.977Z,81.0
2022-10-23T23:10:03.192Z,81.0
2022-10-23T23:12:02.374Z,79.0
2022-10-23T23:14:02.927Z,82.0
2022-10-23T23:16:03.195Z,83.0
2022-10-23T23:18:02.163Z,82.0
2022-10-23T23:20:02.641Z,85.0
2022-10-23T23:22:03.262Z,86.0
2022-10-23T23:24:02.262Z,85.0
2022-10-23T23:26:05.639Z,85.0
2022-10-23T23:28:02.338Z,84.0
2022-10-23T23:30:05.075Z,84.0
2022-10-23T23:32:02.716Z,83.0
2022-10-23T23:34:02.277Z,84.0
2022-10-23T23:36:06.685Z,84.0
2022-10-23T23:38:02.759Z,83.0
2022-10-23T23:40:02.982Z,84.0
2022-10-23T23:42:02.178Z,84.0
2022-10-23T23:44:02.475Z,86.0
2022-10-23T23:46:02.191Z,86.0
2022-10-23T23:48:02.232Z,86.0
2022-10-23T23:50:02.246Z,87.0
2022-10-23T23:52:03.011Z,87.0
2022-10-23T23:54:02.156Z,88.0
2022-10-23T23:56:03.018Z,88.0
2022-10-23T23:58:02.965Z,88.0
